Time;durP1;ratioP1;P1;durP2;ratioP2;P2;SDS_P1;SDS_P2;PMS_P1;PMS_P2;Temp;Humidity;BMP_temperature;BMP_pressure;BME280_temperature;BME280_humidity;BME280_pressure;Samples;Min_cycle;Max_cycle;Signal;HPM_P1;HPM_P2
2023/09/17 00:01:28;;;;;;;11.93;10.70;;;20.00;99.90;;;;;;5054081;28;20488;-75
2023/09/17 00:03:54;;;;;;;16.13;12.90;;;20.00;99.90;;;;;;5050234;28;20502;-75
2023/09/17 00:06:21;;;;;;;14.37;11.53;;;20.00;99.90;;;;;;5057456;28;20460;-75
2023/09/17 00:08:48;;;;;;;15.03;11.20;;;20.00;99.90;;;;;;5056773;28;20525;-75
2023/09/17 00:11:16;;;;;;;15.13;11.20;;;20.00;99.90;;;;;;5057069;28;20529;-75
2023/09/17 00:13:42;;;;;;;12.07;10.73;;;20.00;99.90;;;;;;5057247;28;20448;-75
2023/09/17 00:16:08;;;;;;;14.33;10.80;;;20.00;99.90;;;;;;5057436;28;20502;-75
2023/09/17 00:18:35;;;;;;;11.67;10.13;;;20.00;99.90;;;;;;5056628;28;20210;-74
2023/09/17 00:21:03;;;;;;;10.80;9.67;;;20.00;99.90;;;;;;5057387;28;20480;-74
2023/09/17 00:23:30;;;;;;;11.40;10.20;;;19.90;99.90;;;;;;5058052;28;20464;-74
2023/09/17 00:25:56;;;;;;;10.70;9.50;;;19.80;99.90;;;;;;5054383;28;20472;-74
2023/09/17 00:28:24;;;;;;;11.27;9.27;;;19.80;99.90;;;;;;5057680;28;20954;-74
2023/09/17 00:30:51;;;;;;;12.10;10.10;;;19.70;99.90;;;;;;5055666;28;20444;-74
2023/09/17 00:33:18;;;;;;;10.30;9.30;;;19.80;99.90;;;;;;5059454;28;21022;-74
2023/09/17 00:35:45;;;;;;;13.30;10.37;;;19.70;99.90;;;;;;5057961;28;20506;-74
2023/09/17 00:38:11;;;;;;;17.43;11.20;;;19.70;99.90;;;;;;5056952;28;20513;-74
2023/09/17 00:40:39;;;;;;;13.80;10.47;;;19.70;99.90;;;;;;5058692;28;20541;-74
2023/09/17 00:43:06;;;;;;;14.53;10.27;;;19.60;99.90;;;;;;5056470;28;20522;-74
2023/09/17 00:45:35;;;;;;;14.23;10.87;;;19.50;99.90;;;;;;5056369;28;20487;-74
2023/09/17 00:48:03;;;;;;;15.43;10.33;;;19.40;99.90;;;;;;5055712;28;20456;-74
2023/09/17 00:50:31;;;;;;;13.07;9.70;;;19.40;99.90;;;;;;5058152;28;20452;-74
2023/09/17 00:52:58;;;;;;;11.10;9.70;;;19.40;99.90;;;;;;5056077;28;20479;-74
2023/09/17 00:55:25;;;;;;;12.43;10.40;;;19.30;99.90;;;;;;5056710;28;20460;-75
2023/09/17 00:57:52;;;;;;;11.33;10.13;;;19.30;99.90;;;;;;5056239;28;20466;-75
2023/09/17 01:00:21;;;;;;;18.33;10.43;;;19.30;99.90;;;;;;5056039;28;20488;-74
2023/09/17 01:02:49;;;;;;;12.77;10.70;;;19.20;99.90;;;;;;5055644;28;20526;-74
2023/09/17 01:05:16;;;;;;;12.90;10.67;;;19.20;99.90;;;;;;5056411;28;20505;-74
2023/09/17 01:07:44;;;;;;;13.03;10.90;;;19.20;99.90;;;;;;5059518;28;20975;-74
2023/09/17 01:10:13;;;;;;;12.27;11.00;;;19.20;99.90;;;;;;5061751;28;20878;-74
2023/09/17 01:12:41;;;;;;;13.30;11.20;;;19.20;99.90;;;;;;5053888;28;20567;-74
2023/09/17 01:15:09;;;;;;;14.27;10.40;;;19.20;99.90;;;;;;5053185;28;20506;-74
2023/09/17 01:17:36;;;;;;;15.00;10.63;;;19.20;99.90;;;;;;5053018;28;20458;-74
2023/09/17 01:20:24;;;;;;;11.97;9.80;;;19.20;99.90;;;;;;5053394;28;20502;-74
2023/09/17 01:22:55;;;;;;;14.03;11.00;;;19.20;99.90;;;;;;5057946;28;21020;-74
2023/09/17 01:25:31;;;;;;;12.97;11.57;;;19.10;99.90;;;;;;5053814;28;20488;-74
2023/09/17 01:28:01;;;;;;;11.33;10.23;;;19.10;99.90;;;;;;5051496;28;20543;-74
2023/09/17 01:30:28;;;;;;;17.33;11.00;;;19.10;99.90;;;;;;5052232;28;20834;-74
2023/09/17 01:32:54;;;;;;;12.13;10.70;;;19.10;99.90;;;;;;5047752;28;20519;-74
2023/09/17 01:35:22;;;;;;;12.90;10.80;;;19.10;99.90;;;;;;5052640;28;20514;-74
2023/09/17 01:37:53;;;;;;;14.43;10.40;;;19.00;99.90;;;;;;5048199;28;20552;-74
2023/09/17 01:40:21;;;;;;;12.50;11.10;;;19.00;99.90;;;;;;5054054;28;20484;-75
2023/09/17 01:42:49;;;;;;;11.70;10.37;;;19.00;99.90;;;;;;5052201;28;20480;-74
2023/09/17 01:45:18;;;;;;;12.50;10.40;;;19.00;99.90;;;;;;5053428;28;20824;-74
2023/09/17 01:47:47;;;;;;;12.03;10.73;;;18.90;99.90;;;;;;5051885;28;20456;-75
2023/09/17 01:50:16;;;;;;;13.57;10.80;;;18.90;99.90;;;;;;5052445;28;20931;-74
2023/09/17 01:52:44;;;;;;;11.53;10.23;;;18.80;99.90;;;;;;5053073;28;20480;-75
2023/09/17 01:55:12;;;;;;;14.43;10.97;;;18.80;99.90;;;;;;5053837;28;20518;-75
2023/09/17 01:57:39;;;;;;;12.10;10.73;;;18.80;99.90;;;;;;5052020;28;20538;-75
2023/09/17 02:00:14;;;;;;;13.00;10.60;;;18.70;99.90;;;;;;5052341;28;20452;-75
2023/09/17 02:02:46;;;;;;;12.57;11.10;;;18.70;99.90;;;;;;5051431;28;20487;-75
2023/09/17 02:05:13;;;;;;;13.63;9.80;;;18.60;99.90;;;;;;5052092;28;20539;-75
2023/09/17 02:07:40;;;;;;;12.47;10.87;;;18.60;99.90;;;;;;5051281;28;20452;-75
2023/09/17 02:10:08;;;;;;;11.87;10.00;;;18.50;99.90;;;;;;5052265;28;20445;-75
2023/09/17 02:12:34;;;;;;;11.10;9.17;;;18.50;99.90;;;;;;5053919;28;20533;-75
2023/09/17 02:15:01;;;;;;;13.70;10.30;;;18.50;99.90;;;;;;5051835;28;20452;-75
2023/09/17 02:17:28;;;;;;;13.40;11.10;;;18.50;99.90;;;;;;5054445;28;20799;-74
2023/09/17 02:19:56;;;;;;;14.33;11.13;;;18.40;99.90;;;;;;5051430;28;20514;-75
2023/09/17 02:22:23;;;;;;;11.57;10.37;;;18.40;99.90;;;;;;5051826;28;20541;-75
2023/09/17 02:24:49;;;;;;;11.87;10.00;;;18.40;99.90;;;;;;5050725;28;20873;-75
2023/09/17 02:27:16;;;;;;;13.77;10.77;;;18.40;99.90;;;;;;5052755;28;20457;-75
2023/09/17 02:29:43;;;;;;;12.60;10.20;;;18.40;99.90;;;;;;5051417;28;20456;-75
2023/09/17 02:32:10;;;;;;;12.80;9.70;;;18.30;99.90;;;;;;5051051;28;20476;-74
2023/09/17 02:34:38;;;;;;;14.50;10.57;;;18.40;99.90;;;;;;5051765;28;20452;-74
2023/09/17 02:37:06;;;;;;;13.13;10.30;;;18.40;99.90;;;;;;5051242;28;20448;-75
2023/09/17 02:39:33;;;;;;;12.53;10.33;;;18.30;99.90;;;;;;5051070;28;20461;-75
2023/09/17 02:41:59;;;;;;;11.70;10.20;;;18.30;99.90;;;;;;5049024;28;20524;-75
2023/09/17 02:44:26;;;;;;;11.23;10.03;;;18.40;99.90;;;;;;5051270;28;20449;-74
2023/09/17 02:46:53;;;;;;;11.60;9.60;;;18.30;99.90;;;;;;5050778;28;20506;-75
2023/09/17 02:49:21;;;;;;;11.33;9.83;;;18.30;99.90;;;;;;5051596;28;20469;-75
2023/09/17 02:51:48;;;;;;;11.03;9.80;;;18.40;99.90;;;;;;5050658;28;20538;-74
2023/09/17 02:54:16;;;;;;;11.10;10.00;;;18.40;99.90;;;;;;5049595;28;20452;-74
2023/09/17 02:56:43;;;;;;;10.63;9.63;;;18.40;99.90;;;;;;5047885;28;21322;-75
2023/09/17 02:59:09;;;;;;;11.40;9.83;;;18.40;99.90;;;;;;5043745;28;20449;-75
2023/09/17 03:01:36;;;;;;;12.37;10.97;;;18.40;99.90;;;;;;5050911;28;20566;-74
2023/09/17 03:04:03;;;;;;;12.47;10.83;;;18.40;99.90;;;;;;5049678;28;20453;-75
2023/09/17 03:06:30;;;;;;;10.93;9.83;;;18.50;99.90;;;;;;5048931;28;20460;-75
2023/09/17 03:08:57;;;;;;;13.80;10.30;;;18.40;99.90;;;;;;5051535;28;20449;-75
2023/09/17 03:11:26;;;;;;;11.20;9.80;;;18.40;99.90;;;;;;5052967;28;21070;-75
2023/09/17 03:13:53;;;;;;;13.80;10.10;;;18.40;99.90;;;;;;5050897;28;20457;-75
2023/09/17 03:16:20;;;;;;;16.47;11.57;;;18.40;99.90;;;;;;5049571;28;20452;-75
2023/09/17 03:18:46;;;;;;;12.10;10.50;;;18.40;99.90;;;;;;5050692;28;20456;-75
2023/09/17 03:21:14;;;;;;;11.30;9.90;;;18.40;99.90;;;;;;5051125;28;20510;-75
2023/09/17 03:23:40;;;;;;;11.47;10.30;;;18.50;99.90;;;;;;5056909;28;20463;-75
2023/09/17 03:26:10;;;;;;;11.30;10.13;;;18.50;99.90;;;;;;5050972;28;20453;-75
2023/09/17 03:28:37;;;;;;;12.47;9.93;;;18.50;99.90;;;;;;5050496;28;20506;-75
2023/09/17 03:31:04;;;;;;;10.73;9.60;;;18.50;99.90;;;;;;5050604;28;20510;-75
2023/09/17 03:33:31;;;;;;;11.10;10.00;;;18.50;99.90;;;;;;5050794;28;20529;-75
2023/09/17 03:35:58;;;;;;;12.43;10.83;;;18.50;99.90;;;;;;5050548;28;20452;-75
2023/09/17 03:38:25;;;;;;;11.03;9.93;;;18.50;99.90;;;;;;5053903;28;20448;-75
2023/09/17 03:40:52;;;;;;;13.77;10.80;;;18.50;99.90;;;;;;5050420;28;20461;-75
2023/09/17 03:43:19;;;;;;;12.90;10.50;;;18.50;99.90;;;;;;5050612;28;20461;-75
2023/09/17 03:45:47;;;;;;;13.53;10.43;;;18.50;99.90;;;;;;5049964;28;20453;-75
2023/09/17 03:48:14;;;;;;;14.47;10.50;;;18.50;99.90;;;;;;5050431;28;20874;-75
2023/09/17 03:50:42;;;;;;;11.93;10.63;;;18.50;99.90;;;;;;5056200;28;20964;-75
2023/09/17 03:53:09;;;;;;;17.23;11.40;;;18.40;99.90;;;;;;5052512;28;20855;-75
2023/09/17 03:55:37;;;;;;;11.43;10.23;;;18.40;99.90;;;;;;5050956;28;20463;-75
2023/09/17 03:58:04;;;;;;;13.33;11.90;;;18.40;99.90;;;;;;5050490;28;20543;-75
2023/09/17 04:00:31;;;;;;;11.90;10.70;;;18.40;99.90;;;;;;5050165;28;20452;-75
2023/09/17 04:03:00;;;;;;;15.60;10.87;;;18.30;99.90;;;;;;5050778;28;20491;-75
2023/09/17 04:05:28;;;;;;;13.27;11.37;;;18.30;99.90;;;;;;5050468;28;20471;-75
2023/09/17 04:07:55;;;;;;;16.93;11.33;;;18.40;99.90;;;;;;5050429;28;20623;-75
2023/09/17 04:10:21;;;;;;;14.17;11.63;;;18.40;99.90;;;;;;5050173;28;20982;-75
2023/09/17 04:12:48;;;;;;;22.53;11.67;;;18.40;99.90;;;;;;5050388;28;20504;-75
2023/09/17 04:15:18;;;;;;;15.60;12.30;;;18.30;99.90;;;;;;5050665;28;20464;-75
2023/09/17 04:17:46;;;;;;;16.43;12.93;;;18.30;99.90;;;;;;5050228;28;20457;-74
2023/09/17 04:20:18;;;;;;;19.70;13.60;;;18.30;99.90;;;;;;5045057;28;20460;-75
2023/09/17 04:22:46;;;;;;;14.43;12.93;;;18.20;99.90;;;;;;5051569;28;20496;-74
2023/09/17 04:25:14;;;;;;;15.20;12.83;;;18.20;99.90;;;;;;5050428;28;20460;-74
2023/09/17 04:27:42;;;;;;;20.90;13.53;;;18.10;99.90;;;;;;5050296;28;20464;-74
2023/09/17 04:30:09;;;;;;;18.40;12.93;;;18.10;99.90;;;;;;5050315;28;20456;-75
2023/09/17 04:32:37;;;;;;;26.20;17.50;;;18.00;99.90;;;;;;5050699;28;21055;-75
2023/09/17 04:35:04;;;;;;;21.43;16.10;;;18.00;99.90;;;;;;5050228;28;20972;-75
2023/09/17 04:37:32;;;;;;;22.00;16.00;;;17.80;99.90;;;;;;5051035;28;20455;-75
2023/09/17 04:39:59;;;;;;;23.47;17.30;;;17.80;99.90;;;;;;5050223;28;20471;-74
2023/09/17 04:42:26;;;;;;;24.77;18.27;;;17.80;99.90;;;;;;5050076;28;21073;-74
2023/09/17 04:44:52;;;;;;;20.90;16.43;;;17.80;99.90;;;;;;5054022;28;20502;-75
2023/09/17 04:47:20;;;;;;;28.43;16.97;;;17.80;99.90;;;;;;5049774;28;20539;-75
2023/09/17 04:49:46;;;;;;;22.13;16.67;;;17.90;99.90;;;;;;5054790;28;20525;-74
2023/09/17 04:52:13;;;;;;;19.80;15.40;;;17.90;99.90;;;;;;5053910;28;20468;-75
2023/09/17 04:54:41;;;;;;;25.93;16.30;;;17.90;99.90;;;;;;5053575;28;20456;-74
2023/09/17 04:57:08;;;;;;;26.17;14.83;;;18.00;99.90;;;;;;5053912;28;20456;-74
2023/09/17 04:59:34;;;;;;;21.73;15.40;;;18.00;99.90;;;;;;5055103;28;20873;-75
2023/09/17 05:02:01;;;;;;;19.67;15.37;;;18.00;99.90;;;;;;5053088;28;20522;-75
2023/09/17 05:04:27;;;;;;;20.40;15.60;;;18.00;99.90;;;;;;5053720;28;20506;-75
2023/09/17 05:06:54;;;;;;;23.80;15.80;;;18.00;99.90;;;;;;5052822;28;20590;-74
2023/09/17 05:09:22;;;;;;;19.80;15.27;;;18.00;99.90;;;;;;5056164;28;20521;-75
2023/09/17 05:11:50;;;;;;;17.80;14.80;;;18.00;99.90;;;;;;5052968;28;20494;-74
2023/09/17 05:14:16;;;;;;;20.33;16.40;;;18.00;99.90;;;;;;5053476;28;20452;-75
2023/09/17 05:16:43;;;;;;;24.77;16.90;;;18.00;99.90;;;;;;5053281;28;20585;-74
2023/09/17 05:19:10;;;;;;;19.80;16.60;;;18.00;99.90;;;;;;5055595;28;20460;-75
2023/09/17 05:21:36;;;;;;;20.47;15.97;;;18.00;99.90;;;;;;5054575;28;20515;-74
2023/09/17 05:24:03;;;;;;;23.13;14.43;;;18.00;99.90;;;;;;5055978;28;20969;-76
2023/09/17 05:26:31;;;;;;;22.57;16.50;;;18.00;99.90;;;;;;5054063;28;20479;-72
2023/09/17 05:28:59;;;;;;;21.17;16.30;;;18.00;99.90;;;;;;5052853;28;20533;-72
2023/09/17 05:31:25;;;;;;;22.73;15.40;;;18.00;99.90;;;;;;5052579;28;20479;-72
2023/09/17 05:33:53;;;;;;;20.20;16.00;;;18.00;99.90;;;;;;5052357;28;20591;-72
2023/09/17 05:36:21;;;;;;;22.00;16.10;;;18.10;99.90;;;;;;5052485;28;20467;-72
2023/09/17 05:38:47;;;;;;;21.13;15.50;;;18.10;99.90;;;;;;5052495;28;20506;-72
2023/09/17 05:41:15;;;;;;;24.07;14.90;;;18.10;99.90;;;;;;5052292;28;20480;-73
2023/09/17 05:43:41;;;;;;;18.07;14.17;;;18.10;99.90;;;;;;5052741;28;20459;-72
2023/09/17 05:46:09;;;;;;;18.50;13.33;;;18.10;99.90;;;;;;5052410;28;20456;-73
2023/09/17 05:48:36;;;;;;;18.93;14.50;;;18.10;99.90;;;;;;5052003;28;20457;-72
2023/09/17 05:51:04;;;;;;;17.83;13.13;;;18.10;99.90;;;;;;5054396;28;20464;-73
2023/09/17 05:53:31;;;;;;;16.20;13.80;;;18.10;99.90;;;;;;5054250;28;20469;-72
2023/09/17 05:55:58;;;;;;;19.00;14.70;;;18.20;99.90;;;;;;5052298;28;20462;-73
2023/09/17 05:58:25;;;;;;;16.33;13.77;;;18.20;99.90;;;;;;5051548;28;20460;-73
2023/09/17 06:00:53;;;;;;;17.90;14.17;;;18.30;99.90;;;;;;5051993;28;20514;-73
2023/09/17 06:03:21;;;;;;;17.97;14.47;;;18.30;99.90;;;;;;5052194;28;20569;-73
2023/09/17 06:05:47;;;;;;;17.50;13.70;;;18.30;99.90;;;;;;5054155;28;20695;-73
2023/09/17 06:08:14;;;;;;;15.80;14.07;;;18.30;99.90;;;;;;5050609;28;20502;-73
2023/09/17 06:10:41;;;;;;;23.10;13.63;;;18.30;99.90;;;;;;5040513;28;20457;-73
2023/09/17 06:13:08;;;;;;;17.93;14.13;;;18.30;99.90;;;;;;5052284;28;20958;-73
2023/09/17 06:15:35;;;;;;;17.50;13.40;;;18.30;99.90;;;;;;5052049;28;20453;-73
2023/09/17 06:18:02;;;;;;;16.10;13.50;;;18.40;99.90;;;;;;5052908;28;20533;-73
2023/09/17 06:20:30;;;;;;;21.00;12.70;;;18.40;99.90;;;;;;5053184;28;20453;-72
2023/09/17 06:22:57;;;;;;;15.50;11.70;;;18.40;99.90;;;;;;5046369;28;20496;-73
2023/09/17 06:25:24;;;;;;;19.10;12.57;;;18.40;99.90;;;;;;5049700;28;20973;-73
2023/09/17 06:27:50;;;;;;;17.70;13.50;;;18.40;99.90;;;;;;5051292;28;20448;-73
2023/09/17 06:30:17;;;;;;;17.27;13.83;;;18.40;99.90;;;;;;5051872;28;20448;-73
2023/09/17 06:32:44;;;;;;;15.67;12.00;;;18.40;99.90;;;;;;5051752;28;20493;-73
2023/09/17 06:35:11;;;;;;;17.37;13.80;;;18.40;99.90;;;;;;5058829;28;20475;-74
2023/09/17 06:37:38;;;;;;;17.47;13.10;;;18.40;99.90;;;;;;5054455;28;20763;-73
2023/09/17 06:40:08;;;;;;;22.07;12.93;;;18.40;99.90;;;;;;5054072;28;20494;-73
2023/09/17 06:42:34;;;;;;;14.20;12.70;;;18.50;99.90;;;;;;5055858;28;20484;-73
2023/09/17 06:45:01;;;;;;;17.17;13.50;;;18.50;99.90;;;;;;5055019;28;20860;-73
2023/09/17 06:47:27;;;;;;;14.50;12.37;;;18.60;99.90;;;;;;5058407;28;20457;-73
2023/09/17 06:49:54;;;;;;;16.20;13.20;;;18.60;99.90;;;;;;5058557;28;20440;-73
2023/09/17 06:52:23;;;;;;;18.50;13.27;;;18.80;99.90;;;;;;5060988;28;20465;-73
2023/09/17 06:54:51;;;;;;;13.47;11.90;;;18.90;99.90;;;;;;5060204;28;20455;-75
2023/09/17 06:57:18;;;;;;;19.30;13.60;;;18.90;99.90;;;;;;5058579;28;20451;-73
2023/09/17 06:59:46;;;;;;;19.47;12.77;;;18.90;99.90;;;;;;5060395;28;20437;-73
2023/09/17 07:02:12;;;;;;;16.13;13.47;;;19.00;99.90;;;;;;5064010;28;20495;-73
2023/09/17 07:04:39;;;;;;;13.73;12.20;;;19.00;99.90;;;;;;5051938;28;20816;-73
2023/09/17 07:07:06;;;;;;;20.07;13.20;;;19.10;99.90;;;;;;5054419;28;20449;-74
2023/09/17 07:09:33;;;;;;;21.10;12.57;;;19.20;99.90;;;;;;5057413;28;20541;-73
2023/09/17 07:12:01;;;;;;;15.17;13.57;;;19.20;99.90;;;;;;5052228;28;20827;-73
2023/09/17 07:14:27;;;;;;;14.80;12.47;;;19.20;99.90;;;;;;5051625;28;20875;-73
2023/09/17 07:16:54;;;;;;;18.07;13.87;;;19.30;99.90;;;;;;5049404;28;20460;-72
2023/09/17 07:19:20;;;;;;;18.70;13.83;;;19.30;99.90;;;;;;5053255;28;20449;-73
2023/09/17 07:21:47;;;;;;;17.07;13.10;;;19.40;99.90;;;;;;5056054;28;20884;-73
2023/09/17 07:24:14;;;;;;;21.00;14.27;;;19.70;99.90;;;;;;5055148;28;20448;-72
2023/09/17 07:26:41;;;;;;;19.97;14.33;;;19.80;99.90;;;;;;5052182;28;20444;-73
2023/09/17 07:29:09;;;;;;;17.47;13.77;;;20.20;99.90;;;;;;5055530;28;20942;-73
2023/09/17 07:31:36;;;;;;;17.70;15.20;;;20.70;99.90;;;;;;5053503;28;20464;-73
2023/09/17 07:34:03;;;;;;;19.23;16.10;;;21.30;99.90;;;;;;5051705;28;20853;-73
2023/09/17 07:36:30;;;;;;;24.57;18.17;;;21.80;99.90;;;;;;5054364;28;20452;-73
2023/09/17 07:38:56;;;;;;;26.00;17.77;;;22.00;99.90;;;;;;5053330;28;20455;-73
2023/09/17 07:41:23;;;;;;;26.50;18.67;;;22.20;99.90;;;;;;5054131;28;20464;-73
2023/09/17 07:43:49;;;;;;;23.67;18.03;;;22.20;99.90;;;;;;5053539;28;20488;-73
2023/09/17 07:46:18;;;;;;;22.00;17.30;;;22.30;99.90;;;;;;5046358;28;20452;-72
2023/09/17 07:48:46;;;;;;;22.70;17.63;;;22.40;99.90;;;;;;5050049;28;20456;-72
2023/09/17 07:51:12;;;;;;;28.80;17.80;;;22.40;99.90;;;;;;5041663;28;20483;-72
2023/09/17 07:53:39;;;;;;;19.43;16.13;;;22.30;99.90;;;;;;5038553;28;20507;-74
2023/09/17 07:56:06;;;;;;;23.40;17.13;;;22.50;99.90;;;;;;5037969;28;21223;-71
2023/09/17 07:58:32;;;;;;;24.17;18.20;;;22.70;99.90;;;;;;5037632;28;20503;-68
2023/09/17 08:00:59;;;;;;;25.10;18.27;;;22.80;99.90;;;;;;5037887;28;20951;-69
2023/09/17 08:03:27;;;;;;;26.80;17.53;;;22.80;99.90;;;;;;5037370;28;20485;-69
2023/09/17 08:05:54;;;;;;;27.27;18.60;;;22.90;99.90;;;;;;5037792;28;20448;-69
2023/09/17 08:08:21;;;;;;;31.23;19.00;;;22.80;99.90;;;;;;5038437;28;20456;-69
2023/09/17 08:10:49;;;;;;;24.47;19.27;;;23.00;99.90;;;;;;5037904;28;20529;-70
2023/09/17 08:13:16;;;;;;;24.23;18.00;;;22.90;99.90;;;;;;5037741;28;20468;-70
2023/09/17 08:15:43;;;;;;;39.33;18.13;;;23.00;99.90;;;;;;5037891;28;20540;-70
2023/09/17 08:18:09;;;;;;;21.10;17.57;;;23.00;99.90;;;;;;5037397;28;20464;-69
2023/09/17 08:20:37;;;;;;;22.97;17.80;;;23.00;99.90;;;;;;5036401;28;20868;-68
2023/09/17 08:23:04;;;;;;;23.13;18.10;;;23.20;99.90;;;;;;5040740;28;20493;-69
2023/09/17 08:25:33;;;;;;;23.70;17.03;;;23.20;99.90;;;;;;5042178;28;20455;-69
2023/09/17 08:27:59;;;;;;;24.80;17.13;;;23.20;99.90;;;;;;5041378;28;20570;-69
2023/09/17 08:30:26;;;;;;;20.87;17.20;;;23.30;99.90;;;;;;5041475;28;20518;-69
2023/09/17 08:32:54;;;;;;;26.37;18.80;;;23.30;99.90;;;;;;5041278;28;20511;-69
2023/09/17 08:35:20;;;;;;;27.40;19.00;;;23.40;99.90;;;;;;5042711;28;20483;-69
2023/09/17 08:37:49;;;;;;;26.40;19.13;;;23.60;99.90;;;;;;5041633;28;20445;-69
2023/09/17 08:40:17;;;;;;;25.10;19.10;;;23.80;99.90;;;;;;5041196;28;20448;-69
2023/09/17 08:42:44;;;;;;;25.03;18.47;;;23.90;99.90;;;;;;5042399;28;20564;-69
2023/09/17 08:45:12;;;;;;;29.10;19.07;;;24.00;99.90;;;;;;5041168;28;20449;-69
2023/09/17 08:47:39;;;;;;;21.87;18.13;;;24.00;99.90;;;;;;5042118;28;21049;-69
2023/09/17 08:50:08;;;;;;;23.40;17.60;;;24.20;99.90;;;;;;5041873;28;20453;-69
2023/09/17 08:52:38;;;;;;;23.07;18.57;;;24.20;99.90;;;;;;5041101;28;20499;-69
2023/09/17 08:55:08;;;;;;;24.10;16.77;;;24.20;99.90;;;;;;5041293;28;20935;-70
2023/09/17 08:57:38;;;;;;;21.90;16.73;;;24.30;99.90;;;;;;5041424;28;20441;-70
2023/09/17 09:00:08;;;;;;;23.23;15.50;;;24.40;99.90;;;;;;5040422;28;20433;-70
2023/09/17 09:02:43;;;;;;;23.53;15.70;;;24.50;99.90;;;;;;5041068;28;20518;-70
2023/09/17 09:05:11;;;;;;;20.30;15.77;;;24.50;99.90;;;;;;5039538;28;20526;-70
2023/09/17 09:07:38;;;;;;;17.60;14.20;;;24.60;99.90;;;;;;5040653;28;20452;-70
2023/09/17 09:10:07;;;;;;;19.53;14.67;;;24.70;99.90;;;;;;5042649;28;20460;-70
2023/09/17 09:12:36;;;;;;;18.07;14.07;;;24.70;99.90;;;;;;5043586;28;20904;-69
2023/09/17 09:15:05;;;;;;;16.50;13.77;;;24.70;99.90;;;;;;5041434;28;21036;-70
2023/09/17 09:17:31;;;;;;;19.67;13.40;;;24.70;99.90;;;;;;5041921;28;20461;-70
2023/09/17 09:19:58;;;;;;;16.10;13.10;;;24.90;99.90;;;;;;5040768;28;20999;-70
2023/09/17 09:22:25;;;;;;;14.43;12.30;;;25.00;99.90;;;;;;5041936;28;20518;-70
2023/09/17 09:24:52;;;;;;;16.90;12.57;;;24.90;99.90;;;;;;5041346;28;21024;-70
2023/09/17 09:27:20;;;;;;;19.03;13.10;;;25.00;99.90;;;;;;5041779;28;20447;-70
2023/09/17 09:29:47;;;;;;;18.10;12.43;;;25.00;99.90;;;;;;5041668;28;20464;-70
2023/09/17 09:32:14;;;;;;;15.87;13.20;;;24.80;99.90;;;;;;5041589;28;20477;-70
2023/09/17 09:34:42;;;;;;;15.47;13.73;;;24.70;99.90;;;;;;5040687;28;20446;-70
2023/09/17 09:37:10;;;;;;;21.03;13.97;;;24.70;99.90;;;;;;5040909;28;20499;-70
2023/09/17 09:39:38;;;;;;;17.63;12.67;;;24.80;99.90;;;;;;5042415;28;20505;-71
2023/09/17 09:42:05;;;;;;;16.93;12.33;;;25.00;99.90;;;;;;5040922;28;21818;-70
2023/09/17 09:44:34;;;;;;;18.00;12.00;;;25.30;99.90;;;;;;5041188;28;20495;-70
2023/09/17 09:47:02;;;;;;;18.63;12.40;;;25.30;99.90;;;;;;5041107;28;20450;-70
2023/09/17 09:49:29;;;;;;;15.77;10.50;;;25.10;99.90;;;;;;5042104;28;20463;-71
2023/09/17 09:51:59;;;;;;;12.17;9.30;;;25.10;99.90;;;;;;5040949;28;20477;-70
2023/09/17 09:54:25;;;;;;;10.70;9.57;;;25.40;99.90;;;;;;5040928;28;20456;-70
2023/09/17 09:56:52;;;;;;;11.50;8.67;;;25.60;99.90;;;;;;5040703;28;21761;-70
2023/09/17 09:59:21;;;;;;;13.50;9.40;;;25.80;99.90;;;;;;5041635;28;20499;-70
2023/09/17 10:01:49;;;;;;;12.13;8.50;;;25.80;99.90;;;;;;5040812;28;20975;-70
2023/09/17 10:04:16;;;;;;;13.60;8.80;;;25.80;99.90;;;;;;5039851;28;20500;-71
2023/09/17 10:06:43;;;;;;;13.47;9.40;;;25.70;99.90;;;;;;5040502;28;20500;-71
2023/09/17 10:09:10;;;;;;;13.30;10.20;;;25.80;99.90;;;;;;5039787;28;20453;-71
2023/09/17 10:11:38;;;;;;;11.00;9.30;;;25.80;99.90;;;;;;5042553;28;20571;-71
2023/09/17 10:14:06;;;;;;;10.87;7.40;;;25.90;99.90;;;;;;5041051;28;20457;-70
2023/09/17 10:16:34;;;;;;;11.23;9.40;;;26.00;99.90;;;;;;5040211;28;20978;-76
2023/09/17 10:19:05;;;;;;;8.87;7.80;;;26.00;99.90;;;;;;5039507;28;20448;-73
2023/09/17 10:21:33;;;;;;;10.50;7.17;;;25.80;99.90;;;;;;5039922;28;20460;-73
2023/09/17 10:24:01;;;;;;;9.90;6.60;;;25.80;99.90;;;;;;5039974;28;20497;-76
2023/09/17 10:26:32;;;;;;;10.57;6.60;;;25.70;99.90;;;;;;5040640;28;20973;-71
2023/09/17 10:29:02;;;;;;;8.50;5.90;;;25.80;99.90;;;;;;5040487;28;20453;-73
2023/09/17 10:31:29;;;;;;;9.70;7.40;;;25.80;99.90;;;;;;5040441;28;20479;-72
2023/09/17 10:33:59;;;;;;;11.93;7.20;;;25.80;99.90;;;;;;5039123;28;20510;-72
2023/09/17 10:36:31;;;;;;;10.53;6.93;;;25.90;99.90;;;;;;5040383;28;20464;-73
2023/09/17 10:38:59;;;;;;;9.67;6.13;;;26.00;99.90;;;;;;5040131;28;20459;-73
2023/09/17 10:41:28;;;;;;;10.00;6.73;;;26.00;99.90;;;;;;5039666;28;21175;-72
2023/09/17 10:43:57;;;;;;;6.70;5.80;;;26.10;99.90;;;;;;5040686;28;21046;-72
2023/09/17 10:46:24;;;;;;;6.90;5.97;;;26.20;99.90;;;;;;5038945;28;20460;-72
2023/09/17 10:48:53;;;;;;;7.20;4.97;;;26.40;99.90;;;;;;5040440;28;20460;-73
2023/09/17 10:51:20;;;;;;;7.37;5.70;;;26.50;99.90;;;;;;5038891;28;21011;-72
2023/09/17 10:53:48;;;;;;;9.03;5.80;;;26.60;99.90;;;;;;5039473;28;20445;-72
2023/09/17 10:56:15;;;;;;;5.50;5.00;;;26.60;99.90;;;;;;5039413;28;20465;-73
2023/09/17 10:58:45;;;;;;;5.60;5.03;;;26.70;99.90;;;;;;5038977;28;20498;-73
2023/09/17 11:01:14;;;;;;;10.43;4.90;;;27.00;99.90;;;;;;5038058;28;20453;-74
2023/09/17 11:03:45;;;;;;;10.37;5.37;;;26.90;99.90;;;;;;5039941;28;20845;-73
2023/09/17 11:06:16;;;;;;;9.23;6.07;;;26.90;99.90;;;;;;5039282;28;21079;-71
2023/09/17 11:08:44;;;;;;;6.73;4.93;;;26.90;99.90;;;;;;5040228;28;20465;-71
2023/09/17 11:11:15;;;;;;;7.80;5.13;;;27.00;99.90;;;;;;5037095;28;20526;-71
2023/09/17 11:13:43;;;;;;;7.30;5.17;;;27.30;99.90;;;;;;5037913;28;20445;-70
2023/09/17 11:16:14;;;;;;;7.27;5.80;;;27.30;99.90;;;;;;5039573;28;20468;-68
2023/09/17 11:18:40;;;;;;;8.37;5.50;;;27.20;99.90;;;;;;5038729;28;20445;-72
2023/09/17 11:21:08;;;;;;;9.77;5.07;;;27.10;99.90;;;;;;5038355;28;20445;-73
2023/09/17 11:23:42;;;;;;;8.83;4.70;;;27.10;99.90;;;;;;5038295;28;20492;-73
2023/09/17 11:26:09;;;;;;;5.70;5.17;;;27.00;99.90;;;;;;5038280;28;20515;-73
2023/09/17 11:28:39;;;;;;;7.80;5.30;;;27.00;99.90;;;;;;5038453;28;20433;-72
2023/09/17 11:31:09;;;;;;;7.93;5.10;;;26.90;99.90;;;;;;5039148;28;20454;-72
2023/09/17 11:33:37;;;;;;;10.90;5.30;;;26.90;99.90;;;;;;5038961;28;20504;-73
2023/09/17 11:36:05;;;;;;;6.80;4.37;;;27.00;99.90;;;;;;5038578;28;20556;-72
2023/09/17 11:38:32;;;;;;;11.00;4.77;;;27.00;99.90;;;;;;5038254;28;20475;-72
2023/09/17 11:41:07;;;;;;;7.00;5.10;;;26.90;99.90;;;;;;5038267;28;20802;-71
2023/09/17 11:43:37;;;;;;;9.57;4.80;;;27.00;99.90;;;;;;5038426;28;20491;-71
2023/09/17 11:46:07;;;;;;;5.10;4.67;;;27.10;99.90;;;;;;5038391;28;20475;-70
2023/09/17 11:48:35;;;;;;;10.60;5.00;;;27.10;99.90;;;;;;5037964;28;20457;-73
2023/09/17 11:51:23;;;;;;;9.30;4.90;;;27.20;99.90;;;;;;5037915;28;20461;-74
2023/09/17 11:53:58;;;;;;;7.10;4.80;;;27.40;99.90;;;;;;5038412;28;20451;-74
2023/09/17 11:56:27;;;;;;;5.93;4.47;;;27.70;99.90;;;;;;5038209;28;20505;-76
2023/09/17 11:59:04;;;;;;;5.43;4.90;;;27.90;99.90;;;;;;5037900;28;20535;-74
2023/09/17 12:01:33;;;;;;;5.87;4.90;;;27.70;99.90;;;;;;5037793;28;21747;-79
2023/09/17 12:04:00;;;;;;;9.10;5.20;;;27.60;99.90;;;;;;5039461;28;20497;-74
2023/09/17 12:06:28;;;;;;;13.13;5.30;;;27.60;99.90;;;;;;5038740;28;20445;-75
2023/09/17 12:08:59;;;;;;;7.33;4.90;;;27.70;99.90;;;;;;5038305;28;20548;-75
2023/09/17 12:11:26;;;;;;;5.00;4.50;;;27.80;99.90;;;;;;5038040;28;20535;-75
2023/09/17 12:13:56;;;;;;;8.53;5.67;;;27.90;99.90;;;;;;5037868;28;20445;-73
2023/09/17 12:16:25;;;;;;;14.33;5.07;;;27.90;99.90;;;;;;5038190;28;20822;-75
2023/09/17 12:18:54;;;;;;;6.23;5.37;;;28.20;99.90;;;;;;5037828;28;20971;-74
2023/09/17 12:21:21;;;;;;;10.10;4.67;;;28.50;99.90;;;;;;5037974;28;20464;-76
2023/09/17 12:23:57;;;;;;;7.83;4.77;;;28.70;99.90;;;;;;5037702;28;20485;-73
2023/09/17 12:26:30;;;;;;;8.07;4.50;;;28.60;99.90;;;;;;5038176;28;20436;-72
2023/09/17 12:28:57;;;;;;;10.60;6.23;;;28.30;99.90;;;;;;5038757;28;20445;-74
2023/09/17 12:31:25;;;;;;;6.37;4.50;;;28.30;99.90;;;;;;5038826;28;20499;-72
2023/09/17 12:33:52;;;;;;;7.30;4.40;;;28.40;99.90;;;;;;5038658;28;20924;-70